Time;durP1;ratioP1;P1;durP2;ratioP2;P2;SDS_P1;SDS_P2;PMS_P1;PMS_P2;Temp;Humidity;BMP_temperature;BMP_pressure;BME280_temperature;BME280_humidity;BME280_pressure;Samples;Min_cycle;Max_cycle;Signal;HPM_P1;HPM_P2
2024/01/14 00:00:13;;;;;;;41.23;19.97;;;;;;;;;;5075447;28;20736;-81
2024/01/14 00:03:01;;;;;;;46.83;20.90;;;;;;;;;;5075295;28;20227;-81
2024/01/14 00:05:29;;;;;;;43.30;20.60;;;;;;;;;;5075210;28;20645;-81
2024/01/14 00:07:56;;;;;;;45.40;21.27;;;;;;;;;;5075005;28;20211;-81
2024/01/14 00:10:23;;;;;;;44.17;19.83;;;;;;;;;;5075086;28;20203;-82
2024/01/14 00:12:50;;;;;;;49.37;20.33;;;;;;;;;;5063617;28;20266;-80
2024/01/14 00:15:18;;;;;;;44.10;20.87;;;;;;;;;;5053570;28;20564;-81
2024/01/14 00:17:46;;;;;;;42.33;21.43;;;;;;;;;;5052513;28;20211;-81
2024/01/14 00:20:13;;;;;;;39.57;20.13;;;;;;;;;;5053610;28;20294;-81
2024/01/14 00:22:41;;;;;;;44.03;20.40;;;;;;;;;;5054099;28;20228;-81
2024/01/14 00:25:08;;;;;;;45.67;22.30;;;;;;;;;;5054665;28;20262;-81
2024/01/14 00:27:36;;;;;;;47.33;20.70;;;;;;;;;;5054437;28;20184;-81
2024/01/14 00:30:04;;;;;;;49.87;21.47;;;;;;;;;;5054892;28;20208;-81
2024/01/14 00:32:32;;;;;;;42.47;20.60;;;;;;;;;;5054546;28;20208;-81
2024/01/14 00:34:59;;;;;;;48.37;23.20;;;;;;;;;;5054445;28;20261;-81
2024/01/14 00:37:27;;;;;;;39.17;20.50;;;;;;;;;;5054784;28;20759;-81
2024/01/14 00:39:55;;;;;;;42.53;20.67;;;;;;;;;;5054661;28;20214;-81
2024/01/14 00:42:22;;;;;;;49.80;21.50;;;;;;;;;;5054316;28;20673;-81
2024/01/14 00:44:49;;;;;;;41.13;20.10;;;;;;;;;;5054658;28;20200;-81
2024/01/14 00:47:16;;;;;;;38.87;18.83;;;;;;;;;;5054284;28;20660;-81
2024/01/14 00:49:43;;;;;;;39.70;19.93;;;;;;;;;;5054781;28;20305;-81
2024/01/14 00:52:11;;;;;;;42.73;21.03;;;;;;;;;;5054293;28;20653;-81
2024/01/14 00:54:38;;;;;;;44.00;20.73;;;;;;;;;;5054554;28;20694;-85
2024/01/14 00:57:07;;;;;;;39.43;19.00;;;;;;;;;;5053290;28;20557;-80
2024/01/14 00:59:34;;;;;;;40.40;19.63;;;;;;;;;;5054540;28;20303;-86
2024/01/14 01:02:02;;;;;;;40.43;20.47;;;;;;;;;;5053449;28;20257;-81
2024/01/14 01:04:29;;;;;;;41.87;20.30;;;;;;;;;;5053715;28;20224;-81
2024/01/14 01:06:56;;;;;;;36.00;19.97;;;;;;;;;;5052998;28;20252;-82
2024/01/14 01:09:23;;;;;;;46.23;19.27;;;;;;;;;;5053947;28;20614;-81
2024/01/14 01:11:50;;;;;;;46.40;19.50;;;;;;;;;;5054017;28;20212;-81
2024/01/14 01:14:18;;;;;;;40.40;20.80;;;;;;;;;;5053781;28;20204;-81
2024/01/14 01:16:45;;;;;;;37.60;20.57;;;;;;;;;;5054287;28;20200;-81
2024/01/14 01:19:12;;;;;;;41.17;19.93;;;;;;;;;;5052866;28;20227;-81
2024/01/14 01:21:39;;;;;;;42.13;20.30;;;;;;;;;;5054151;28;20200;-81
2024/01/14 01:24:08;;;;;;;41.03;20.10;;;;;;;;;;5052846;28;20232;-81
2024/01/14 01:26:36;;;;;;;37.37;19.90;;;;;;;;;;5053858;28;20204;-81
2024/01/14 01:29:03;;;;;;;37.90;19.67;;;;;;;;;;5053709;28;20258;-83
2024/01/14 01:31:31;;;;;;;40.80;21.33;;;;;;;;;;5053752;28;20204;-83
2024/01/14 01:34:11;;;;;;;37.97;20.33;;;;;;;;;;5054356;28;20206;-83
2024/01/14 01:36:39;;;;;;;43.93;21.10;;;;;;;;;;5053240;28;20244;-83
2024/01/14 01:39:06;;;;;;;47.53;21.87;;;;;;;;;;5053710;28;20294;-83
2024/01/14 01:41:33;;;;;;;51.77;23.63;;;;;;;;;;5053588;28;20565;-83
2024/01/14 01:44:00;;;;;;;40.50;20.90;;;;;;;;;;5053769;28;20388;-83
2024/01/14 01:46:28;;;;;;;39.87;20.37;;;;;;;;;;5053634;28;20283;-83
2024/01/14 01:48:55;;;;;;;45.87;23.10;;;;;;;;;;5052206;28;20202;-81
2024/01/14 01:51:22;;;;;;;41.50;21.30;;;;;;;;;;5052524;28;20245;-81
2024/01/14 01:53:50;;;;;;;43.10;22.83;;;;;;;;;;5053279;28;20206;-81
2024/01/14 01:56:17;;;;;;;43.77;21.87;;;;;;;;;;5052310;28;20609;-80
2024/01/14 01:58:44;;;;;;;45.87;22.70;;;;;;;;;;5052005;28;20617;-80
2024/01/14 02:01:12;;;;;;;50.33;23.23;;;;;;;;;;5053748;28;20192;-80
2024/01/14 02:03:39;;;;;;;36.17;21.20;;;;;;;;;;5054273;28;20680;-80
2024/01/14 02:06:09;;;;;;;46.27;22.33;;;;;;;;;;5053362;28;20196;-81
2024/01/14 02:08:36;;;;;;;46.50;22.57;;;;;;;;;;5053056;28;20561;-81
2024/01/14 02:11:04;;;;;;;44.67;22.93;;;;;;;;;;5053503;28;20212;-81
2024/01/14 02:13:31;;;;;;;38.23;22.33;;;;;;;;;;5053292;28;20212;-80
2024/01/14 02:15:58;;;;;;;36.47;20.30;;;;;;;;;;5053864;28;20188;-81
2024/01/14 02:18:26;;;;;;;40.10;21.53;;;;;;;;;;5057099;28;20225;-81
2024/01/14 02:20:53;;;;;;;38.33;20.90;;;;;;;;;;5057081;28;20204;-81
2024/01/14 02:23:21;;;;;;;33.37;18.87;;;;;;;;;;5055591;28;20254;-80
2024/01/14 02:25:48;;;;;;;38.10;19.77;;;;;;;;;;5057296;28;20525;-81
2024/01/14 02:28:15;;;;;;;36.23;19.50;;;;;;;;;;5055758;28;20227;-80
2024/01/14 02:30:43;;;;;;;37.87;19.33;;;;;;;;;;5055961;28;20242;-81
2024/01/14 02:33:11;;;;;;;34.83;18.63;;;;;;;;;;5055515;28;20204;-83
2024/01/14 02:35:42;;;;;;;38.63;19.73;;;;;;;;;;5056532;28;20224;-84
2024/01/14 02:38:09;;;;;;;32.73;18.43;;;;;;;;;;5057082;28;20195;-84
2024/01/14 02:40:37;;;;;;;33.47;18.37;;;;;;;;;;5056812;28;20192;-83
2024/01/14 02:43:04;;;;;;;33.67;19.13;;;;;;;;;;5056784;28;20215;-84
2024/01/14 02:45:31;;;;;;;33.43;18.50;;;;;;;;;;5056938;28;20257;-84
2024/01/14 02:47:59;;;;;;;33.63;18.53;;;;;;;;;;5056910;28;20199;-80
2024/01/14 02:50:26;;;;;;;35.43;18.17;;;;;;;;;;5056401;28;20230;-80
2024/01/14 02:52:53;;;;;;;31.23;18.50;;;;;;;;;;5056217;28;20620;-80
2024/01/14 02:55:21;;;;;;;34.17;17.83;;;;;;;;;;5056640;28;20534;-80
2024/01/14 02:57:49;;;;;;;36.90;18.17;;;;;;;;;;5056319;28;20207;-80
2024/01/14 03:00:16;;;;;;;32.47;17.13;;;;;;;;;;5056479;28;20207;-80
2024/01/14 03:02:43;;;;;;;31.63;17.53;;;;;;;;;;5055163;28;20208;-80
2024/01/14 03:05:11;;;;;;;33.77;18.60;;;;;;;;;;5056501;28;20196;-80
2024/01/14 03:07:38;;;;;;;36.37;17.90;;;;;;;;;;5056426;28;20238;-80
2024/01/14 03:10:06;;;;;;;32.23;18.70;;;;;;;;;;5056557;28;20188;-80
2024/01/14 03:12:33;;;;;;;33.33;17.43;;;;;;;;;;5056256;28;20291;-80
2024/01/14 03:15:00;;;;;;;32.83;16.77;;;;;;;;;;5056353;28;20269;-80
2024/01/14 03:17:28;;;;;;;33.87;17.17;;;;;;;;;;5055837;28;20232;-81
2024/01/14 03:19:55;;;;;;;30.60;15.60;;;;;;;;;;5056632;28;20211;-80
2024/01/14 03:22:22;;;;;;;31.77;17.07;;;;;;;;;;5056420;28;20258;-80
2024/01/14 03:24:50;;;;;;;31.63;16.30;;;;;;;;;;5055004;28;20216;-80
2024/01/14 03:27:17;;;;;;;29.33;16.87;;;;;;;;;;5055951;28;20212;-80
2024/01/14 03:29:44;;;;;;;28.23;15.73;;;;;;;;;;5056118;28;20196;-80
2024/01/14 03:32:11;;;;;;;31.23;16.47;;;;;;;;;;5072348;28;20264;-80
2024/01/14 03:34:38;;;;;;;32.07;16.90;;;;;;;;;;5076151;28;20206;-80
2024/01/14 03:37:05;;;;;;;37.50;17.53;;;;;;;;;;5076099;28;20231;-80
2024/01/14 03:39:33;;;;;;;38.00;18.93;;;;;;;;;;5076084;28;20203;-80
2024/01/14 03:42:00;;;;;;;32.63;17.50;;;;;;;;;;5075095;28;20191;-86
2024/01/14 03:44:27;;;;;;;28.03;16.47;;;;;;;;;;5075558;28;20222;-85
2024/01/14 03:46:54;;;;;;;33.57;16.00;;;;;;;;;;5075852;28;20278;-81
2024/01/14 03:49:22;;;;;;;33.77;16.80;;;;;;;;;;5075895;28;20215;-81
2024/01/14 03:51:49;;;;;;;31.30;15.80;;;;;;;;;;5075781;28;20207;-81
2024/01/14 03:54:16;;;;;;;34.20;17.03;;;;;;;;;;5075415;28;20531;-81
2024/01/14 03:56:44;;;;;;;30.00;15.17;;;;;;;;;;5075399;28;20539;-81
2024/01/14 03:59:11;;;;;;;38.17;17.50;;;;;;;;;;5075343;28;20191;-81
2024/01/14 04:01:38;;;;;;;38.57;16.90;;;;;;;;;;5075623;28;20187;-80
2024/01/14 04:04:06;;;;;;;28.40;15.47;;;;;;;;;;5075064;28;20227;-80
2024/01/14 04:06:33;;;;;;;27.97;15.57;;;;;;;;;;5075499;28;20207;-80
2024/01/14 04:09:01;;;;;;;37.67;17.77;;;;;;;;;;5075189;28;20671;-80
2024/01/14 04:11:28;;;;;;;33.80;16.03;;;;;;;;;;5073930;28;20196;-80
2024/01/14 04:13:56;;;;;;;25.07;15.03;;;;;;;;;;5073192;28;20215;-81
2024/01/14 04:16:23;;;;;;;44.23;19.47;;;;;;;;;;5073797;28;20199;-81
2024/01/14 04:18:50;;;;;;;33.17;15.60;;;;;;;;;;5073725;28;20203;-80
2024/01/14 04:21:21;;;;;;;27.13;15.47;;;;;;;;;;5073995;28;20657;-80
2024/01/14 04:23:50;;;;;;;28.23;15.47;;;;;;;;;;5075406;28;20214;-81
2024/01/14 04:26:21;;;;;;;26.73;15.00;;;;;;;;;;5072438;28;20660;-80
2024/01/14 04:28:50;;;;;;;31.83;16.13;;;;;;;;;;5073667;28;20200;-80
2024/01/14 04:31:18;;;;;;;29.97;16.43;;;;;;;;;;5072416;28;20203;-80
2024/01/14 04:33:45;;;;;;;28.73;15.67;;;;;;;;;;5072128;28;20212;-80
2024/01/14 04:36:14;;;;;;;27.70;15.13;;;;;;;;;;5074147;28;20247;-80
2024/01/14 04:38:42;;;;;;;31.47;16.07;;;;;;;;;;5074070;28;20204;-80
2024/01/14 04:41:09;;;;;;;27.50;15.40;;;;;;;;;;5074736;28;20188;-81
2024/01/14 04:43:36;;;;;;;30.20;16.00;;;;;;;;;;5074507;28;20223;-80
2024/01/14 04:46:07;;;;;;;29.23;15.17;;;;;;;;;;5074294;28;20207;-80
2024/01/14 04:48:35;;;;;;;29.07;14.57;;;;;;;;;;5074546;28;20191;-80
2024/01/14 04:51:02;;;;;;;29.83;15.43;;;;;;;;;;5074261;28;20207;-80
2024/01/14 04:53:30;;;;;;;28.00;15.23;;;;;;;;;;5074152;28;20203;-79
2024/01/14 04:55:57;;;;;;;36.97;16.90;;;;;;;;;;5074654;28;20278;-80
2024/01/14 04:58:24;;;;;;;27.77;15.40;;;;;;;;;;5074015;28;20203;-80
2024/01/14 05:00:51;;;;;;;26.53;14.67;;;;;;;;;;5074168;28;20253;-80
2024/01/14 05:03:19;;;;;;;27.07;14.83;;;;;;;;;;5073810;28;20257;-80
2024/01/14 05:05:46;;;;;;;37.33;16.93;;;;;;;;;;5073872;28;20583;-80
2024/01/14 05:08:13;;;;;;;31.93;16.73;;;;;;;;;;5073785;28;20663;-80
2024/01/14 05:10:40;;;;;;;42.77;17.93;;;;;;;;;;5073989;28;20203;-80
2024/01/14 05:13:08;;;;;;;28.57;14.93;;;;;;;;;;5073919;28;20641;-80
2024/01/14 05:15:35;;;;;;;28.93;15.47;;;;;;;;;;5073975;28;20196;-80
2024/01/14 05:18:02;;;;;;;33.30;17.10;;;;;;;;;;5073546;28;20211;-80
2024/01/14 05:20:30;;;;;;;37.20;17.80;;;;;;;;;;5073965;28;20198;-81
2024/01/14 05:22:57;;;;;;;30.50;16.10;;;;;;;;;;5073699;28;20211;-82
2024/01/14 05:25:24;;;;;;;31.63;17.77;;;;;;;;;;5072691;28;20280;-79
2024/01/14 05:27:52;;;;;;;30.20;17.10;;;;;;;;;;5062250;28;20254;-79
2024/01/14 05:30:19;;;;;;;39.23;18.00;;;;;;;;;;5053787;28;20295;-79
2024/01/14 05:32:46;;;;;;;30.67;16.33;;;;;;;;;;5072835;28;20207;-79
2024/01/14 05:35:14;;;;;;;32.33;16.10;;;;;;;;;;5057041;28;20462;-81
2024/01/14 05:37:41;;;;;;;45.87;22.63;;;;;;;;;;5073544;28;20559;-79
2024/01/14 05:40:09;;;;;;;30.67;15.77;;;;;;;;;;5073723;28;20203;-79
2024/01/14 05:42:40;;;;;;;40.37;17.47;;;;;;;;;;5073626;28;20198;-79
2024/01/14 05:45:10;;;;;;;35.97;16.37;;;;;;;;;;5073449;28;20215;-79
2024/01/14 05:47:38;;;;;;;32.63;16.13;;;;;;;;;;5073368;28;20816;-79
2024/01/14 05:50:09;;;;;;;27.93;15.13;;;;;;;;;;5072370;28;20207;-79
2024/01/14 05:52:37;;;;;;;42.10;18.60;;;;;;;;;;5073078;28;20214;-81
2024/01/14 05:55:05;;;;;;;31.07;16.00;;;;;;;;;;5073713;28;20623;-80
2024/01/14 05:57:32;;;;;;;27.77;14.90;;;;;;;;;;5073127;28;20211;-80
2024/01/14 05:59:59;;;;;;;44.53;22.47;;;;;;;;;;5073122;28;20210;-79
2024/01/14 06:02:32;;;;;;;26.53;15.87;;;;;;;;;;5067059;28;20277;-79
2024/01/14 06:04:59;;;;;;;31.10;16.27;;;;;;;;;;5051803;28;20281;-79
2024/01/14 06:07:27;;;;;;;33.47;16.37;;;;;;;;;;5051559;28;20334;-79
2024/01/14 06:09:54;;;;;;;27.83;14.43;;;;;;;;;;5053093;28;20196;-79
2024/01/14 06:12:21;;;;;;;39.53;17.07;;;;;;;;;;5052899;28;20605;-79
2024/01/14 06:14:48;;;;;;;30.57;17.03;;;;;;;;;;5053101;28;20200;-79
2024/01/14 06:17:15;;;;;;;57.70;20.70;;;;;;;;;;5052985;28;20203;-80
2024/01/14 06:19:43;;;;;;;34.80;15.97;;;;;;;;;;5052882;28;20596;-80
2024/01/14 06:22:12;;;;;;;30.53;15.97;;;;;;;;;;5064821;28;20205;-80
2024/01/14 06:24:39;;;;;;;36.33;19.90;;;;;;;;;;5072685;28;20300;-80
2024/01/14 06:27:07;;;;;;;53.73;20.17;;;;;;;;;;5073147;28;20199;-80
2024/01/14 06:29:34;;;;;;;34.77;17.30;;;;;;;;;;5072775;28;20199;-81
2024/01/14 06:32:01;;;;;;;29.87;16.03;;;;;;;;;;5073215;28;20202;-80
2024/01/14 06:34:28;;;;;;;44.47;18.83;;;;;;;;;;5072783;28;20348;-79
2024/01/14 06:36:55;;;;;;;32.80;18.23;;;;;;;;;;5073385;28;20234;-79
2024/01/14 06:39:22;;;;;;;33.60;17.53;;;;;;;;;;5073595;28;20208;-79
2024/01/14 06:41:51;;;;;;;27.63;15.50;;;;;;;;;;5073994;28;20203;-80
2024/01/14 06:44:18;;;;;;;46.40;18.63;;;;;;;;;;5072905;28;20277;-79
2024/01/14 06:46:46;;;;;;;30.43;15.73;;;;;;;;;;5072543;28;20615;-80
2024/01/14 06:49:13;;;;;;;29.67;15.90;;;;;;;;;;5072831;28;20207;-80
2024/01/14 06:51:42;;;;;;;32.03;16.40;;;;;;;;;;5072903;28;20200;-79
2024/01/14 06:54:09;;;;;;;38.20;21.43;;;;;;;;;;5071165;28;20245;-80
2024/01/14 06:56:43;;;;;;;25.60;15.50;;;;;;;;;;5072768;28;20265;-79
2024/01/14 06:59:17;;;;;;;28.00;15.37;;;;;;;;;;5072546;28;20208;-80
2024/01/14 07:01:45;;;;;;;26.43;15.13;;;;;;;;;;5072669;28;20281;-85
2024/01/14 07:04:13;;;;;;;26.30;14.70;;;;;;;;;;5074987;28;20234;-79
2024/01/14 07:06:41;;;;;;;26.50;15.00;;;;;;;;;;5075424;28;20206;-80
2024/01/14 07:09:10;;;;;;;35.83;17.63;;;;;;;;;;5076322;28;20206;-80
2024/01/14 07:11:38;;;;;;;28.67;14.53;;;;;;;;;;5058360;28;20307;-80
2024/01/14 07:14:06;;;;;;;27.83;15.00;;;;;;;;;;5074026;28;20280;-81
2024/01/14 07:16:33;;;;;;;31.17;14.97;;;;;;;;;;5060646;28;20266;-81
2024/01/14 07:19:00;;;;;;;29.73;17.20;;;;;;;;;;5075070;28;20219;-81
2024/01/14 07:21:28;;;;;;;40.73;17.37;;;;;;;;;;5070847;28;20223;-81
2024/01/14 07:23:55;;;;;;;34.67;16.10;;;;;;;;;;5066460;28;20223;-80
2024/01/14 07:26:23;;;;;;;28.37;14.43;;;;;;;;;;5073529;28;20281;-80
2024/01/14 07:28:54;;;;;;;26.27;15.63;;;;;;;;;;5075314;28;20731;-80
2024/01/14 07:31:30;;;;;;;20.30;12.63;;;;;;;;;;5071301;28;20231;-80
2024/01/14 07:33:58;;;;;;;24.70;13.93;;;;;;;;;;5075266;28;20226;-80
2024/01/14 07:36:25;;;;;;;26.63;14.27;;;;;;;;;;5076231;28;20647;-81
2024/01/14 07:38:53;;;;;;;21.53;13.63;;;;;;;;;;5074769;28;20215;-81
2024/01/14 07:41:21;;;;;;;29.03;15.63;;;;;;;;;;5074001;28;20707;-81
2024/01/14 07:43:48;;;;;;;28.37;14.23;;;;;;;;;;5075637;28;20251;-80
2024/01/14 07:46:15;;;;;;;32.30;15.30;;;;;;;;;;5075313;28;20326;-80
2024/01/14 07:48:42;;;;;;;28.80;14.27;;;;;;;;;;5075851;28;20219;-82
2024/01/14 07:51:10;;;;;;;28.70;14.97;;;;;;;;;;5075939;28;20287;-82
2024/01/14 07:53:37;;;;;;;26.23;14.97;;;;;;;;;;5074059;28;20270;-82
2024/01/14 07:56:05;;;;;;;28.73;14.73;;;;;;;;;;5073996;28;20245;-82
2024/01/14 07:58:32;;;;;;;28.50;13.60;;;;;;;;;;5074882;28;20582;-82
2024/01/14 08:00:59;;;;;;;39.80;17.23;;;;;;;;;;5074798;28;20683;-82
2024/01/14 08:03:30;;;;;;;21.53;12.83;;;;;;;;;;5072482;28;20239;-81
2024/01/14 08:05:59;;;;;;;24.53;13.17;;;;;;;;;;5072087;28;20231;-82
2024/01/14 08:08:27;;;;;;;31.40;13.57;;;;;;;;;;5073414;28;20227;-82
2024/01/14 08:10:55;;;;;;;28.03;13.43;;;;;;;;;;5073983;28;20227;-79
2024/01/14 08:13:22;;;;;;;19.17;11.70;;;;;;;;;;5073427;28;20235;-79
2024/01/14 08:15:49;;;;;;;20.13;12.23;;;;;;;;;;5073998;28;20306;-81
2024/01/14 08:18:29;;;;;;;27.70;14.40;;;;;;;;;;5053901;28;20309;-82
2024/01/14 08:20:58;;;;;;;22.37;12.43;;;;;;;;;;5063081;28;20212;-79
2024/01/14 08:23:28;;;;;;;27.90;13.17;;;;;;;;;;5074736;28;20753;-80
2024/01/14 08:25:57;;;;;;;27.30;15.23;;;;;;;;;;5067383;28;20924;-79
2024/01/14 08:28:24;;;;;;;26.37;13.67;;;;;;;;;;5052219;28;20603;-81
2024/01/14 08:30:51;;;;;;;31.23;15.10;;;;;;;;;;5054268;28;20224;-80
2024/01/14 08:33:19;;;;;;;23.67;13.40;;;;;;;;;;5062112;28;20231;-80
2024/01/14 08:35:46;;;;;;;19.20;11.27;;;;;;;;;;5073018;28;20243;-80
2024/01/14 08:38:13;;;;;;;19.77;10.90;;;;;;;;;;5073298;28;20231;-80
2024/01/14 08:40:41;;;;;;;20.30;11.63;;;;;;;;;;5072631;28;20226;-78
2024/01/14 08:43:11;;;;;;;24.50;12.43;;;;;;;;;;5073469;28;20249;-80
2024/01/14 08:45:38;;;;;;;21.23;11.83;;;;;;;;;;5070707;28;20320;-80
2024/01/14 08:48:06;;;;;;;26.37;14.47;;;;;;;;;;5072668;28;20818;-81
2024/01/14 08:50:34;;;;;;;19.53;11.77;;;;;;;;;;5073435;28;20242;-80
2024/01/14 08:53:01;;;;;;;22.80;12.63;;;;;;;;;;5073281;28;20239;-80
2024/01/14 08:55:28;;;;;;;18.73;11.10;;;;;;;;;;5072367;28;20227;-80
2024/01/14 08:57:55;;;;;;;26.83;13.43;;;;;;;;;;5074383;28;20247;-80
2024/01/14 09:00:23;;;;;;;21.87;12.60;;;;;;;;;;5073674;28;20583;-79
2024/01/14 09:02:50;;;;;;;18.63;11.20;;;;;;;;;;5073221;28;20712;-79
2024/01/14 09:05:17;;;;;;;18.73;11.70;;;;;;;;;;5072748;28;20239;-79
2024/01/14 09:07:44;;;;;;;26.33;13.60;;;;;;;;;;5073530;28;20230;-78
2024/01/14 09:10:12;;;;;;;19.70;10.97;;;;;;;;;;5072087;28;20231;-81
2024/01/14 09:12:39;;;;;;;18.07;10.17;;;;;;;;;;5053119;28;20244;-79
2024/01/14 09:15:07;;;;;;;15.30;9.70;;;;;;;;;;5069860;28;20234;-81
2024/01/14 09:17:34;;;;;;;27.80;11.87;;;;;;;;;;5070486;28;20231;-80
2024/01/14 09:20:04;;;;;;;27.90;12.10;;;;;;;;;;5078895;28;20231;-81
2024/01/14 09:22:32;;;;;;;18.43;10.80;;;;;;;;;;5073223;28;20745;-80
2024/01/14 09:24:59;;;;;;;22.03;10.77;;;;;;;;;;5072226;28;20243;-80
2024/01/14 09:27:30;;;;;;;11.93;8.37;;;;;;;;;;5071017;28;20230;-81
2024/01/14 09:29:58;;;;;;;12.97;8.33;;;;;;;;;;5071479;28;20231;-80
2024/01/14 09:32:26;;;;;;;11.00;7.73;;;;;;;;;;5072372;28;20277;-80
2024/01/14 09:34:54;;;;;;;17.30;9.37;;;;;;;;;;5072466;28;20273;-81
2024/01/14 09:37:21;;;;;;;17.13;9.70;;;;;;;;;;5072763;28;20297;-80
2024/01/14 09:39:49;;;;;;;13.57;8.00;;;;;;;;;;5072385;28;20211;-82
2024/01/14 09:42:23;;;;;;;10.60;7.83;;;;;;;;;;5072779;28;20254;-81
2024/01/14 09:44:58;;;;;;;21.80;10.20;;;;;;;;;;5071437;28;20622;-83
2024/01/14 09:47:26;;;;;;;16.63;8.67;;;;;;;;;;5071567;28;20230;-81
2024/01/14 09:49:55;;;;;;;15.23;8.80;;;;;;;;;;5072857;28;20234;-81
2024/01/14 09:52:23;;;;;;;19.53;10.23;;;;;;;;;;5072633;28;20273;-81
2024/01/14 09:54:51;;;;;;;12.37;7.57;;;;;;;;;;5070942;28;20219;-81
2024/01/14 09:57:20;;;;;;;10.13;7.10;;;;;;;;;;5072752;28;20235;-82
2024/01/14 09:59:51;;;;;;;11.37;7.00;;;;;;;;;;5071265;28;20231;-81
2024/01/14 10:02:19;;;;;;;13.07;7.23;;;;;;;;;;5071077;28;20309;-80
2024/01/14 10:04:47;;;;;;;16.40;8.03;;;;;;;;;;5071062;28;20227;-81
2024/01/14 10:07:15;;;;;;;14.63;7.63;;;;;;;;;;5071341;28;20242;-81
2024/01/14 10:09:43;;;;;;;15.23;7.03;;;;;;;;;;5070985;28;20680;-82
2024/01/14 10:12:10;;;;;;;16.50;7.50;;;;;;;;;;5072270;28;20239;-81
2024/01/14 10:14:38;;;;;;;23.20;10.00;;;;;;;;;;5072188;28;20238;-81
2024/01/14 10:17:05;;;;;;;22.70;9.30;;;;;;;;;;5072502;28;20707;-81
2024/01/14 10:19:33;;;;;;;25.37;10.03;;;;;;;;;;5072449;28;20230;-81
2024/01/14 10:22:00;;;;;;;14.73;9.03;;;;;;;;;;5071986;28;20700;-82
2024/01/14 10:24:53;;;;;;;29.70;11.13;;;;;;;;;;5071716;28;20594;-81
2024/01/14 10:27:21;;;;;;;9.93;6.57;;;;;;;;;;5070912;28;20714;-81
2024/01/14 10:30:12;;;;;;;9.20;6.57;;;;;;;;;;5072350;28;20234;-81
2024/01/14 10:32:42;;;;;;;15.67;7.80;;;;;;;;;;5072295;28;20234;-81
2024/01/14 10:35:29;;;;;;;22.00;9.37;;;;;;;;;;5072232;28;20281;-81
2024/01/14 10:37:58;;;;;;;17.87;7.37;;;;;;;;;;5074477;28;20314;-81
2024/01/14 10:40:26;;;;;;;17.77;8.00;;;;;;;;;;5075846;28;20229;-81
2024/01/14 10:42:53;;;;;;;12.27;7.07;;;;;;;;;;5077595;28;20259;-81
2024/01/14 10:45:21;;;;;;;18.20;7.67;;;;;;;;;;5075726;28;20227;-81
2024/01/14 10:47:51;;;;;;;16.13;7.50;;;;;;;;;;5076107;28;20239;-81
2024/01/14 10:50:19;;;;;;;16.97;7.77;;;;;;;;;;5074995;28;20708;-82
2024/01/14 10:52:54;;;;;;;10.30;7.03;;;;;;;;;;5074806;28;20261;-81
2024/01/14 10:55:34;;;;;;;8.53;6.30;;;;;;;;;;5074113;28;20219;-81
2024/01/14 10:58:03;;;;;;;8.13;5.67;;;;;;;;;;5076106;28;20234;-81
2024/01/14 11:00:34;;;;;;;13.30;7.27;;;;;;;;;;5075116;28;20613;-81
2024/01/14 11:03:06;;;;;;;14.70;7.50;;;;;;;;;;5075343;28;20231;-80
2024/01/14 11:05:34;;;;;;;11.50;6.53;;;;;;;;;;5078357;28;20235;-80
2024/01/14 11:08:03;;;;;;;14.47;7.37;;;;;;;;;;5073690;28;20223;-81
2024/01/14 11:10:31;;;;;;;11.97;5.60;;;;;;;;;;5074549;28;20231;-79
2024/01/14 11:13:07;;;;;;;16.00;6.90;;;;;;;;;;5075800;28;20704;-80
2024/01/14 11:16:04;;;;;;;16.60;6.70;;;;;;;;;;5075391;28;20234;-80
2024/01/14 11:18:52;;;;;;;12.87;6.53;;;;;;;;;;5069475;28;20766;-80
2024/01/14 11:21:24;;;;;;;10.60;5.70;;;;;;;;;;5073839;28;20215;-80
2024/01/14 11:24:11;;;;;;;9.07;4.90;;;;;;;;;;5074595;28;20228;-80
2024/01/14 11:26:38;;;;;;;9.00;5.50;;;;;;;;;;5074701;28;20222;-80
2024/01/14 11:29:06;;;;;;;11.43;6.23;;;;;;;;;;5074831;28;20599;-80
2024/01/14 11:32:11;;;;;;;13.10;6.70;;;;;;;;;;5075309;28;20215;-80
2024/01/14 11:34:48;;;;;;;9.90;6.00;;;;;;;;;;5057296;28;20235;-80
2024/01/14 11:37:29;;;;;;;12.27;6.50;;;;;;;;;;5074975;28;20706;-80
2024/01/14 11:40:17;;;;;;;19.03;8.47;;;;;;;;;;5075130;28;20250;-80
2024/01/14 11:42:56;;;;;;;17.17;7.17;;;;;;;;;;5073840;28;20226;-80
2024/01/14 11:45:23;;;;;;;23.60;8.20;;;;;;;;;;5072891;28;20235;-81
2024/01/14 11:47:53;;;;;;;10.77;6.60;;;;;;;;;;5069368;28;20258;-80
2024/01/14 11:50:21;;;;;;;9.80;6.63;;;;;;;;;;5071998;28;20777;-79
2024/01/14 11:52:51;;;;;;;8.87;5.90;;;;;;;;;;5072027;28;20700;-80
2024/01/14 11:55:19;;;;;;;10.90;5.87;;;;;;;;;;5073144;28;20223;-80
2024/01/14 11:57:47;;;;;;;9.70;6.07;;;;;;;;;;5073210;28;20223;-79
2024/01/14 12:00:16;;;;;;;21.23;8.33;;;;;;;;;;5069021;28;20231;-80
2024/01/14 12:02:43;;;;;;;17.77;8.40;;;;;;;;;;5072044;28;20231;-80
2024/01/14 12:05:21;;;;;;;15.80;7.37;;;;;;;;;;5071006;28;20235;-80
2024/01/14 12:07:53;;;;;;;16.27;7.60;;;;;;;;;;5074161;28;20211;-80
2024/01/14 12:10:20;;;;;;;12.00;7.03;;;;;;;;;;5073707;28;20239;-79
2024/01/14 12:12:47;;;;;;;24.30;9.57;;;;;;;;;;5074275;28;20231;-80
2024/01/14 12:15:15;;;;;;;23.97;7.90;;;;;;;;;;5075240;28;20222;-79
2024/01/14 12:17:59;;;;;;;16.90;7.97;;;;;;;;;;5074389;28;20207;-81
2024/01/14 12:20:27;;;;;;;24.03;10.70;;;;;;;;;;5072836;28;20249;-81
2024/01/14 12:23:00;;;;;;;13.37;6.80;;;;;;;;;;5072409;28;20223;-81
2024/01/14 12:25:27;;;;;;;14.47;6.53;;;;;;;;;;5072166;28;20608;-81
2024/01/14 12:27:57;;;;;;;17.00;7.63;;;;;;;;;;5073992;28;20226;-81
2024/01/14 12:30:34;;;;;;;14.93;6.90;;;;;;;;;;5072916;28;20215;-81
2024/01/14 12:33:06;;;;;;;13.43;6.97;;;;;;;;;;5070159;28;20229;-81
2024/01/14 12:35:36;;;;;;;11.03;6.40;;;;;;;;;;5061304;28;20242;-81
2024/01/14 12:38:06;;;;;;;26.03;8.50;;;;;;;;;;5073136;28;20551;-81
2024/01/14 12:40:34;;;;;;;16.20;6.90;;;;;;;;;;5073256;28;20219;-81
2024/01/14 12:43:02;;;;;;;17.97;7.20;;;;;;;;;;5068934;28;20277;-81
2024/01/14 12:45:29;;;;;;;22.40;7.90;;;;;;;;;;5073842;28;20658;-81
2024/01/14 12:48:04;;;;;;;25.77;9.00;;;;;;;;;;5073336;28;20224;-81
2024/01/14 12:50:36;;;;;;;13.37;6.03;;;;;;;;;;5071972;28;20795;-81
2024/01/14 12:53:05;;;;;;;10.70;7.03;;;;;;;;;;5071451;28;20239;-81
2024/01/14 12:55:32;;;;;;;15.57;7.20;;;;;;;;;;5073238;28;20254;-80
2024/01/14 12:58:00;;;;;;;13.53;7.10;;;;;;;;;;5073326;28;20238;-81
2024/01/14 13:00:29;;;;;;;14.60;7.13;;;;;;;;;;5072728;28;20597;-81
2024/01/14 13:02:57;;;;;;;19.13;7.97;;;;;;;;;;5072017;28;20246;-81
2024/01/14 13:05:24;;;;;;;23.70;9.60;;;;;;;;;;5071873;28;20238;-80
2024/01/14 13:07:52;;;;;;;15.20;7.23;;;;;;;;;;5072444;28;20601;-81
2024/01/14 13:10:20;;;;;;;18.33;8.57;;;;;;;;;;5072618;28;20218;-80
2024/01/14 13:12:47;;;;;;;12.20;6.87;;;;;;;;;;5071288;28;20226;-81
2024/01/14 13:15:15;;;;;;;14.83;7.57;;;;;;;;;;5073042;28;20223;-81
2024/01/14 13:17:43;;;;;;;24.33;9.23;;;;;;;;;;5072819;28;20318;-81
2024/01/14 13:20:11;;;;;;;13.47;7.33;;;;;;;;;;5072696;28;20230;-81
2024/01/14 13:22:39;;;;;;;9.10;5.90;;;;;;;;;;5074268;28;20230;-81
2024/01/14 13:25:06;;;;;;;9.87;5.57;;;;;;;;;;5074976;28;20224;-81
2024/01/14 13:27:34;;;;;;;13.40;6.07;;;;;;;;;;5072915;28;20231;-81
2024/01/14 13:30:02;;;;;;;13.63;6.13;;;;;;;;;;5072723;28;20231;-81
2024/01/14 13:32:36;;;;;;;7.20;4.83;;;;;;;;;;5073002;28;20216;-80
2024/01/14 13:35:05;;;;;;;8.10;5.20;;;;;;;;;;5071622;28;20231;-80
2024/01/14 13:37:34;;;;;;;19.83;7.73;;;;;;;;;;5073486;28;20750;-81
2024/01/14 13:40:05;;;;;;;18.53;7.53;;;;;;;;;;5073130;28;20219;-81
2024/01/14 13:42:33;;;;;;;8.93;5.57;;;;;;;;;;5072646;28;20648;-82
2024/01/14 13:45:05;;;;;;;20.67;7.37;;;;;;;;;;5071575;28;20610;-81
2024/01/14 13:47:33;;;;;;;9.43;5.80;;;;;;;;;;5072589;28;20276;-81
2024/01/14 13:50:00;;;;;;;17.17;7.07;;;;;;;;;;5071949;28;20765;-81
2024/01/14 13:52:28;;;;;;;9.83;6.20;;;;;;;;;;5071566;28;20223;-81
2024/01/14 13:54:55;;;;;;;7.67;5.60;;;;;;;;;;5069712;28;20581;-81
2024/01/14 13:57:22;;;;;;;8.93;5.33;;;;;;;;;;5070874;28;20234;-81
2024/01/14 13:59:50;;;;;;;15.77;7.00;;;;;;;;;;5072626;28;20235;-81
2024/01/14 14:02:19;;;;;;;16.67;7.43;;;;;;;;;;5071237;28;20302;-81
2024/01/14 14:04:46;;;;;;;15.30;6.57;;;;;;;;;;5071286;28;20239;-81
2024/01/14 14:07:13;;;;;;;35.63;13.37;;;;;;;;;;5071729;28;20231;-81
2024/01/14 14:09:41;;;;;;;20.83;8.70;;;;;;;;;;5071951;28;20231;-81
2024/01/14 14:12:09;;;;;;;16.23;7.53;;;;;;;;;;5072890;28;20231;-81
2024/01/14 14:14:37;;;;;;;25.73;9.30;;;;;;;;;;5076444;28;20241;-81
2024/01/14 14:17:05;;;;;;;29.37;9.77;;;;;;;;;;5076401;28;20253;-81
2024/01/14 14:19:32;;;;;;;12.87;7.23;;;;;;;;;;5074838;28;20591;-81
2024/01/14 14:21:59;;;;;;;12.20;7.03;;;;;;;;;;5076415;28;20218;-81
2024/01/14 14:24:29;;;;;;;9.43;6.73;;;;;;;;;;5076429;28;20235;-80
2024/01/14 14:26:57;;;;;;;13.50;7.23;;;;;;;;;;5075292;28;20227;-81
2024/01/14 14:29:24;;;;;;;19.03;8.77;;;;;;;;;;5074394;28;20215;-81